createdAt,value
2018-11-22T00:00:18.166Z,102069.86
2018-11-22T00:02:47.273Z,102074.37
2018-11-22T00:05:16.154Z,102075.61
2018-11-22T00:07:44.692Z,102071.61
2018-11-22T00:10:13.175Z,102078.11
2018-11-22T00:12:41.632Z,102072.00
2018-11-22T00:15:12.086Z,102074.95
2018-11-22T00:17:41.070Z,102068.81
2018-11-22T00:20:09.866Z,102079.21
2018-11-22T00:22:38.418Z,102079.62
2018-11-22T00:25:08.116Z,102073.64
2018-11-22T00:27:36.669Z,102073.48
2018-11-22T00:30:06.929Z,102074.98
2018-11-22T00:32:35.538Z,102071.05
2018-11-22T00:35:03.914Z,102071.77
2018-11-22T00:37:32.463Z,102072.62
2018-11-22T00:40:00.874Z,102066.64
2018-11-22T00:42:29.634Z,102069.05
2018-11-22T00:44:58.294Z,102068.73
2018-11-22T00:47:26.727Z,102074.41
2018-11-22T00:49:55.316Z,102078.20
2018-11-22T00:52:23.830Z,102068.98
2018-11-22T00:54:52.264Z,102072.69
2018-11-22T00:57:20.823Z,102069.50
2018-11-22T00:59:49.228Z,102078.95
2018-11-22T01:02:17.698Z,102080.31
2018-11-22T01:04:46.324Z,102074.95
2018-11-22T01:07:14.829Z,102080.52
2018-11-22T01:09:43.374Z,102072.21
2018-11-22T01:12:11.950Z,102074.03
2018-11-22T01:14:40.375Z,102079.90
2018-11-22T01:17:08.773Z,102081.18
2018-11-22T01:19:37.250Z,102083.77
2018-11-22T01:22:05.762Z,102074.75
2018-11-22T01:24:34.316Z,102083.03
2018-11-22T01:27:02.808Z,102081.00
2018-11-22T01:29:31.198Z,102078.61
2018-11-22T01:32:00.026Z,102082.02
2018-11-22T01:34:28.425Z,102080.52
2018-11-22T01:36:57.035Z,102078.85
2018-11-22T01:39:25.513Z,102074.83
2018-11-22T01:41:54.056Z,102070.84
2018-11-22T01:44:22.620Z,102065.12
2018-11-22T01:46:51.060Z,102068.37
2018-11-22T01:49:19.687Z,102069.62
2018-11-22T01:51:48.149Z,102061.95
2018-11-22T01:54:16.576Z,102065.83
2018-11-22T01:56:45.264Z,102065.70
2018-11-22T01:59:14.124Z,102060.56
2018-11-22T02:01:42.528Z,102061.58
2018-11-22T02:04:11.152Z,102059.02
2018-11-22T02:06:39.731Z,102061.78
2018-11-22T02:09:10.043Z,102056.98
2018-11-22T02:11:39.665Z,102061.31
2018-11-22T02:14:08.113Z,102056.87
2018-11-22T02:16:36.570Z,102058.45
2018-11-22T02:19:05.149Z,102054.33
2018-11-22T02:21:33.902Z,102052.19
2018-11-22T02:24:02.423Z,102052.55
2018-11-22T02:26:30.924Z,102056.30
2018-11-22T02:28:59.617Z,102061.16
2018-11-22T02:31:28.116Z,102056.96
2018-11-22T02:33:56.578Z,102059.16
2018-11-22T02:36:25.112Z,102059.28
2018-11-22T02:38:53.606Z,102065.92
2018-11-22T02:41:22.078Z,102067.68
2018-11-22T02:43:50.602Z,102067.14
2018-11-22T02:46:19.100Z,102066.03
2018-11-22T02:48:47.533Z,102072.38
2018-11-22T02:51:15.968Z,102072.83
2018-11-22T02:53:44.572Z,102066.69
2018-11-22T02:56:13.037Z,102070.36
2018-11-22T02:58:41.462Z,102066.98
2018-11-22T03:01:10.049Z,102068.60
2018-11-22T03:03:38.488Z,102073.70
2018-11-22T03:06:07.040Z,102068.78
2018-11-22T03:08:35.494Z,102061.55
2018-11-22T03:11:04.106Z,102073.28
2018-11-22T03:13:32.414Z,102075.37
2018-11-22T03:16:00.866Z,102070.27
2018-11-22T03:18:29.371Z,102068.31
2018-11-22T03:20:57.862Z,102064.64
2018-11-22T03:23:26.316Z,102067.37
2018-11-22T03:25:54.780Z,102061.13
2018-11-22T03:28:23.500Z,102065.08
2018-11-22T03:30:51.960Z,102073.40
2018-11-22T03:33:20.438Z,102069.73
2018-11-22T03:35:48.847Z,102063.65
2018-11-22T03:38:17.418Z,102066.29
2018-11-22T03:40:45.906Z,102062.69
2018-11-22T03:43:14.336Z,102067.47
2018-11-22T03:45:42.684Z,102065.95
2018-11-22T03:48:11.879Z,102067.49
2018-11-22T03:50:40.350Z,102065.73
2018-11-22T03:53:08.839Z,102064.72
2018-11-22T03:55:37.304Z,102068.52
2018-11-22T03:58:05.841Z,102065.47
2018-11-22T04:00:34.680Z,102066.42
2018-11-22T04:03:03.321Z,102061.73
2018-11-22T04:05:31.864Z,102055.16
2018-11-22T04:08:00.416Z,102058.80
2018-11-22T04:10:30.259Z,102051.20
2018-11-22T04:12:58.979Z,102057.78
2018-11-22T04:15:27.876Z,102054.72
2018-11-22T04:17:56.504Z,102059.37
2018-11-22T04:20:26.327Z,102057.44
2018-11-22T04:22:54.706Z,102052.57
2018-11-22T04:25:23.685Z,102052.36
2018-11-22T04:27:52.082Z,102052.27
2018-11-22T04:30:28.862Z,102055.34
2018-11-22T04:32:57.528Z,102052.33
2018-11-22T04:35:26.322Z,102054.27
2018-11-22T04:37:54.968Z,102051.88
2018-11-22T04:40:24.551Z,102050.81
2018-11-22T04:42:53.911Z,102057.58
2018-11-22T04:45:22.622Z,102055.11
2018-11-22T04:47:52.416Z,102052.45
2018-11-22T04:50:22.366Z,102061.67
2018-11-22T04:52:51.036Z,102057.66
2018-11-22T04:55:19.816Z,102065.49
2018-11-22T04:57:48.568Z,102057.02
2018-11-22T05:00:18.441Z,102063.89
2018-11-22T05:02:47.196Z,102061.86
2018-11-22T05:05:17.107Z,102059.17
2018-11-22T05:07:45.874Z,102060.45
2018-11-22T05:10:16.254Z,102060.45
2018-11-22T05:12:45.332Z,102063.44
2018-11-22T05:15:18.151Z,102058.05
2018-11-22T05:17:46.786Z,102056.52
2018-11-22T05:20:19.207Z,102062.10
2018-11-22T05:22:48.164Z,102061.04
2018-11-22T05:25:16.835Z,102063.06
2018-11-22T05:27:45.275Z,102064.45
2018-11-22T05:30:15.921Z,102070.53
2018-11-22T05:32:44.441Z,102072.62
2018-11-22T05:35:13.932Z,102073.62
2018-11-22T05:37:42.419Z,102071.27
2018-11-22T05:40:13.519Z,102063.06
2018-11-22T05:42:42.122Z,102065.57
2018-11-22T05:45:12.844Z,102067.66
2018-11-22T05:47:41.611Z,102067.41
2018-11-22T05:50:11.898Z,102068.40
2018-11-22T05:52:40.459Z,102070.63
2018-11-22T05:55:09.860Z,102065.78
2018-11-22T05:57:38.794Z,102074.06
2018-11-22T06:00:35.384Z,102067.31
2018-11-22T06:03:04.601Z,102056.98
2018-11-22T06:05:34.203Z,102067.97
2018-11-22T06:08:02.807Z,102070.27
2018-11-22T06:10:33.204Z,102071.07
2018-11-22T06:13:03.106Z,102072.96
2018-11-22T06:15:31.961Z,102072.96
2018-11-22T06:18:01.215Z,102080.31
2018-11-22T06:20:30.966Z,102070.87
2018-11-22T06:22:59.686Z,102071.03
2018-11-22T06:25:28.241Z,102076.94
2018-11-22T06:27:57.277Z,102076.83
2018-11-22T06:30:30.099Z,102079.76
2018-11-22T06:33:00.068Z,102081.83
2018-11-22T06:35:29.191Z,102084.72
2018-11-22T06:37:58.068Z,102092.38
2018-11-22T06:40:26.535Z,102085.88
2018-11-22T06:42:55.969Z,102084.54
2018-11-22T06:45:25.981Z,102087.97
2018-11-22T06:47:54.555Z,102093.90
2018-11-22T06:50:23.806Z,102085.52
2018-11-22T06:52:52.979Z,102081.45
2018-11-22T06:55:23.381Z,102094.47
2018-11-22T06:57:52.022Z,102092.50
2018-11-22T07:00:22.131Z,102091.31
2018-11-22T07:02:54.911Z,102094.64
2018-11-22T07:05:24.566Z,102095.00
2018-11-22T07:07:53.418Z,102088.77
2018-11-22T07:10:22.047Z,102101.88
2018-11-22T07:12:50.975Z,102095.06
2018-11-22T07:15:19.979Z,102097.56
2018-11-22T07:17:48.897Z,102101.70
2018-11-22T07:20:19.014Z,102105.41
2018-11-22T07:22:48.394Z,102103.52
2018-11-22T07:25:18.998Z,102104.56
2018-11-22T07:27:47.829Z,102101.07
2018-11-22T07:30:18.385Z,102098.72
2018-11-22T07:32:47.871Z,102108.27
2018-11-22T07:35:18.006Z,102111.39
2018-11-22T07:37:46.901Z,102114.24
2018-11-22T07:40:18.242Z,102114.37
2018-11-22T07:42:50.599Z,102109.87
2018-11-22T07:45:19.938Z,102111.75
2018-11-22T07:47:48.845Z,102122.38
2018-11-22T07:50:19.003Z,102118.48
2018-11-22T07:52:47.649Z,102118.09
2018-11-22T07:55:17.459Z,102124.20
2018-11-22T07:57:46.443Z,102126.34
2018-11-22T08:00:26.758Z,102121.61
2018-11-22T08:02:55.663Z,102126.38
2018-11-22T08:05:25.263Z,102125.27
2018-11-22T08:07:53.975Z,102123.09
2018-11-22T08:10:22.946Z,102125.34
2018-11-22T08:12:52.883Z,102129.33
2018-11-22T08:15:23.168Z,102119.23
2018-11-22T08:17:51.780Z,102124.18
2018-11-22T08:20:21.864Z,102129.18
2018-11-22T08:22:51.574Z,102126.80
2018-11-22T08:25:21.711Z,102123.43
2018-11-22T08:27:50.784Z,102125.95
2018-11-22T08:30:20.062Z,102133.86
2018-11-22T08:32:52.609Z,102136.84
2018-11-22T08:35:17.682Z,102139.67
2018-11-22T08:37:46.349Z,102136.42
2018-11-22T12:16:14.835Z,102098.30
2018-11-22T12:18:43.415Z,102103.20
2018-11-22T12:21:11.855Z,102097.56
2018-11-22T12:23:47.083Z,102096.27
2018-11-22T12:26:15.362Z,102093.25
2018-11-22T12:28:43.641Z,102101.23
2018-11-22T12:31:11.965Z,102094.55
2018-11-22T12:33:40.132Z,102099.91
2018-11-22T12:36:13.973Z,102093.27
2018-11-22T12:38:43.066Z,102091.33
2018-11-22T12:41:11.460Z,102093.22
2018-11-22T12:43:39.850Z,102090.03
2018-11-22T12:46:08.067Z,102083.37
2018-11-22T12:48:36.498Z,102083.67
2018-11-22T12:51:04.843Z,102081.86
2018-11-22T12:53:33.104Z,102090.98
2018-11-22T12:56:01.394Z,102085.86
2018-11-22T12:58:29.707Z,102077.59
2018-11-22T13:00:58.686Z,102078.66
2018-11-22T13:03:27.046Z,102091.30
2018-11-22T13:05:55.341Z,102088.09
2018-11-22T13:08:23.552Z,102086.11
2018-11-22T13:10:51.760Z,102079.94
2018-11-22T13:13:19.936Z,102078.20
2018-11-22T13:15:48.168Z,102083.94
2018-11-22T13:18:16.364Z,102082.16
2018-11-22T13:20:44.573Z,102090.36
2018-11-22T13:23:12.839Z,102094.68
2018-11-22T13:25:41.266Z,102081.44
2018-11-22T13:28:09.496Z,102086.74
2018-11-22T13:30:37.831Z,102087.20
2018-11-22T13:33:06.095Z,102084.73
2018-11-22T13:35:34.303Z,102084.97
2018-11-22T13:38:02.543Z,102080.63
2018-11-22T13:40:30.737Z,102079.00
2018-11-22T13:42:58.945Z,102080.98
2018-11-22T13:45:28.349Z,102083.44
2018-11-22T13:47:57.456Z,102080.87
2018-11-22T13:50:30.454Z,102080.31
2018-11-22T13:53:00.511Z,102079.84
2018-11-22T13:55:29.568Z,102073.19
2018-11-22T13:57:58.094Z,102078.13
2018-11-22T14:00:28.326Z,102079.83
2018-11-22T14:02:58.388Z,102080.63
2018-11-22T14:05:26.829Z,102084.66
2018-11-22T14:07:55.145Z,102086.43
2018-11-22T14:10:23.673Z,102087.68
2018-11-22T14:12:52.208Z,102082.86
2018-11-22T14:15:23.068Z,102084.65
2018-11-22T14:17:52.786Z,102084.59
2018-11-22T14:20:23.581Z,102089.34
2018-11-22T14:22:51.757Z,102087.29
2018-11-22T14:25:20.139Z,102090.09
2018-11-22T14:27:49.752Z,102086.00
2018-11-22T14:30:19.961Z,102094.20
2018-11-22T14:32:49.103Z,102090.88
2018-11-22T14:35:18.581Z,102090.58
2018-11-22T14:37:47.058Z,102088.80
2018-11-22T14:40:17.320Z,102078.77
2018-11-22T14:42:46.571Z,102082.80
2018-11-22T14:45:15.869Z,102077.44
2018-11-22T14:47:45.526Z,102080.89
2018-11-22T14:50:17.938Z,102083.67
2018-11-22T14:52:48.457Z,102085.08
2018-11-22T14:55:16.710Z,102080.09
2018-11-22T14:57:44.903Z,102074.86
2018-11-22T15:00:14.639Z,102070.28
2018-11-22T15:02:44.113Z,102073.58
2018-11-22T15:05:12.861Z,102067.72
2018-11-22T15:07:41.779Z,102073.89
2018-11-22T15:10:11.679Z,102071.37
2018-11-22T15:12:40.605Z,102072.23
2018-11-22T15:15:11.663Z,102078.25
2018-11-22T15:17:40.475Z,102079.24
2018-11-22T15:20:10.309Z,102070.27
2018-11-22T15:22:39.031Z,102074.15
2018-11-22T15:25:08.580Z,102076.12
2018-11-22T15:27:36.761Z,102074.94
2018-11-22T15:30:07.191Z,102087.41
2018-11-22T15:32:35.511Z,102090.70
2018-11-22T15:35:04.010Z,102090.38
2018-11-22T15:37:32.242Z,102092.06
2018-11-22T15:40:00.575Z,102086.41
2018-11-22T15:42:28.781Z,102086.45
2018-11-22T15:44:57.113Z,102091.25
2018-11-22T15:47:25.305Z,102087.73
2018-11-22T15:49:53.491Z,102084.77
2018-11-22T15:52:21.766Z,102086.45
2018-11-22T15:54:50.196Z,102086.86
2018-11-22T15:57:18.379Z,102080.28
2018-11-22T15:59:46.523Z,102087.50
2018-11-22T16:02:14.778Z,102093.59
2018-11-22T16:04:43.140Z,102091.95
2018-11-22T16:07:11.337Z,102089.66
2018-11-22T16:09:39.477Z,102090.17
2018-11-22T16:12:07.682Z,102093.52
2018-11-22T16:14:35.924Z,102096.97
2018-11-22T16:17:04.440Z,102093.66
2018-11-22T16:19:32.636Z,102101.85
2018-11-22T16:22:00.816Z,102098.42
2018-11-22T16:24:29.255Z,102097.11
2018-11-22T16:26:57.525Z,102105.44
2018-11-22T16:29:25.813Z,102096.84
2018-11-22T16:31:54.594Z,102104.13
2018-11-22T16:34:23.505Z,102094.48
2018-11-22T16:36:52.019Z,102094.53
2018-11-22T16:39:20.232Z,102090.95
2018-11-22T16:41:48.429Z,102091.00
2018-11-22T16:44:17.117Z,102090.08
2018-11-22T16:46:46.859Z,102090.41
2018-11-22T16:49:15.063Z,102091.87
2018-11-22T16:51:43.397Z,102091.55
2018-11-22T16:54:11.641Z,102098.16
2018-11-22T16:56:40.019Z,102102.00
2018-11-22T16:59:08.265Z,102101.23
2018-11-22T17:01:36.546Z,102102.12
2018-11-22T17:04:04.787Z,102093.66
2018-11-22T17:06:33.037Z,102104.94
2018-11-22T17:09:01.259Z,102105.39
2018-11-22T17:11:29.509Z,102107.96
2018-11-22T17:13:57.849Z,102101.74
2018-11-22T17:16:26.161Z,102110.96
2018-11-22T17:18:54.392Z,102106.09
2018-11-22T17:21:22.561Z,102102.61
2018-11-22T17:23:50.776Z,102106.02
2018-11-22T17:26:19.229Z,102111.54
2018-11-22T17:28:47.361Z,102110.47
2018-11-22T17:31:15.571Z,102111.09
2018-11-22T17:33:43.853Z,102110.98
2018-11-22T17:36:12.071Z,102115.09
2018-11-22T17:38:40.261Z,102116.94
2018-11-22T17:41:08.531Z,102119.17
2018-11-22T17:43:36.791Z,102119.83
2018-11-22T17:46:05.096Z,102125.61
2018-11-22T17:48:33.408Z,102123.22
2018-11-22T17:51:01.867Z,102120.95
2018-11-22T17:53:30.121Z,102125.63
2018-11-22T17:55:58.420Z,102119.38
2018-11-22T17:58:26.620Z,102126.86
2018-11-22T18:00:54.889Z,102122.56
2018-11-22T18:03:23.138Z,102119.17
2018-11-22T18:05:51.747Z,102122.61
2018-11-22T18:08:20.225Z,102122.98
2018-11-22T18:10:48.531Z,102118.92
2018-11-22T18:13:17.326Z,102124.27
2018-11-22T18:15:50.796Z,102127.34
2018-11-22T18:18:19.083Z,102136.39
2018-11-22T18:20:47.229Z,102129.20
2018-11-22T18:23:15.420Z,102121.44
2018-11-22T18:25:44.028Z,102127.23
2018-11-22T18:28:11.845Z,102133.32
2018-11-22T18:30:40.119Z,102132.00
2018-11-22T18:33:09.140Z,102133.28
2018-11-22T18:35:37.325Z,102124.75
2018-11-22T18:38:05.616Z,102127.89
2018-11-22T18:40:35.418Z,102118.45
2018-11-22T18:43:04.237Z,102119.16
2018-11-22T18:45:34.491Z,102122.66
2018-11-22T18:48:03.747Z,102120.52
2018-11-22T18:50:33.044Z,102120.08
2018-11-22T18:53:07.792Z,102118.80
2018-11-22T18:55:35.998Z,102118.68
2018-11-22T18:58:04.300Z,102116.81
2018-11-22T19:00:35.005Z,102116.23
2018-11-22T19:03:04.844Z,102115.55
2018-11-22T19:05:33.034Z,102113.80
2018-11-22T19:08:01.971Z,102108.48
2018-11-22T19:10:31.505Z,102107.91
2018-11-22T19:13:01.872Z,102111.20
2018-11-22T19:15:31.676Z,102118.73
2018-11-22T19:18:00.067Z,102115.70
2018-11-22T19:20:31.102Z,102111.72
2018-11-22T19:23:00.398Z,102112.26
2018-11-22T19:25:28.839Z,102114.95
2018-11-22T19:27:57.914Z,102119.94
2018-11-22T19:30:27.613Z,102118.14
2018-11-22T19:32:57.098Z,102119.30
2018-11-22T19:35:26.927Z,102114.84
2018-11-22T19:37:55.228Z,102118.92
2018-11-22T19:40:24.868Z,102117.92
2018-11-22T19:42:54.510Z,102113.61
2018-11-22T19:45:24.267Z,102107.44
2018-11-22T19:47:52.667Z,102113.14
2018-11-22T19:50:22.424Z,102106.93
2018-11-22T19:52:51.237Z,102114.04
2018-11-22T19:55:21.053Z,102114.66
2018-11-22T19:57:50.898Z,102117.95
2018-11-22T20:00:20.216Z,102109.97
2018-11-22T20:02:49.083Z,102119.62
2018-11-22T20:05:18.722Z,102111.05
2018-11-22T20:07:48.551Z,102117.92
2018-11-22T20:10:19.438Z,102119.67
2018-11-22T20:12:47.898Z,102120.40
2018-11-22T20:15:16.474Z,102125.48
2018-11-22T20:17:45.431Z,102140.16
2018-11-22T20:20:14.712Z,102135.57
2018-11-22T20:22:43.130Z,102135.23
2018-11-22T20:25:11.577Z,102135.61
2018-11-22T20:27:40.569Z,102131.50
2018-11-22T20:30:11.646Z,102124.89
2018-11-22T20:32:40.615Z,102132.23
2018-11-22T20:35:11.749Z,102124.86
2018-11-22T20:37:40.049Z,102130.02
2018-11-22T20:40:09.471Z,102129.16
2018-11-22T20:42:38.449Z,102128.86
2018-11-22T20:45:08.438Z,102126.64
2018-11-22T20:47:36.831Z,102132.05
2018-11-22T20:50:06.841Z,102125.37
2018-11-22T20:52:35.116Z,102125.13
2018-11-22T20:55:03.381Z,102131.80
2018-11-22T20:57:31.595Z,102126.13
2018-11-22T21:00:00.396Z,102128.81
2018-11-22T21:02:28.688Z,102130.90
2018-11-22T21:04:56.933Z,102121.59
2018-11-22T21:07:25.250Z,102127.27
2018-11-22T21:09:53.928Z,102125.59
2018-11-22T21:12:22.153Z,102123.65
2018-11-22T21:14:50.355Z,102129.15
2018-11-22T21:17:18.601Z,102125.93
2018-11-22T21:19:47.894Z,102127.09
2018-11-22T21:22:16.275Z,102116.30
2018-11-22T21:24:44.750Z,102121.36
2018-11-22T21:27:12.966Z,102118.96
2018-11-22T21:29:41.416Z,102117.06
2018-11-22T21:32:09.504Z,102107.20
2018-11-22T21:34:37.689Z,102115.02
2018-11-22T21:37:05.946Z,102108.91
2018-11-22T21:39:34.288Z,102108.78
2018-11-22T21:42:02.470Z,102107.50
2018-11-22T21:44:30.729Z,102110.00
2018-11-22T21:46:59.168Z,102112.70
2018-11-22T21:49:27.404Z,102109.90
2018-11-22T21:51:55.627Z,102117.47
2018-11-22T21:54:23.809Z,102113.05
2018-11-22T21:59:22.137Z,102117.08
2018-11-22T22:01:50.303Z,102115.61
2018-11-22T22:04:18.524Z,102112.73
2018-11-22T22:06:46.764Z,102119.82
2018-11-22T22:09:14.974Z,102117.94
2018-11-22T22:11:43.246Z,102116.60
2018-11-22T22:14:11.408Z,102110.80
2018-11-22T22:16:39.738Z,102117.34
2018-11-22T22:19:07.969Z,102127.89
2018-11-22T22:21:36.184Z,102119.00
2018-11-22T22:24:04.488Z,102121.29
2018-11-22T22:26:32.633Z,102121.36
2018-11-22T22:29:00.796Z,102121.25
2018-11-22T22:31:28.974Z,102122.56
2018-11-22T22:33:57.147Z,102127.22
2018-11-22T22:36:25.424Z,102124.38
2018-11-22T22:38:53.757Z,102123.67
2018-11-22T22:41:22.068Z,102124.80
2018-11-22T22:43:50.282Z,102116.91
2018-11-22T22:46:18.485Z,102118.06
2018-11-22T22:48:46.646Z,102121.52
2018-11-22T22:51:14.837Z,102115.89
2018-11-22T22:53:43.066Z,102118.96
2018-11-22T22:56:11.409Z,102114.77
2018-11-22T22:58:39.846Z,102122.64
2018-11-22T23:01:08.069Z,102115.97
2018-11-22T23:03:36.221Z,102114.66
2018-11-22T23:06:04.542Z,102114.22
2018-11-22T23:08:32.690Z,102113.83
2018-11-22T23:11:00.892Z,102118.68
2018-11-22T23:13:29.071Z,102120.91
2018-11-22T23:15:57.242Z,102116.00
2018-11-22T23:18:25.482Z,102118.16
2018-11-22T23:20:53.662Z,102114.34
2018-11-22T23:23:21.865Z,102123.20
2018-11-22T23:25:50.017Z,102114.08
2018-11-22T23:28:18.210Z,102111.66
2018-11-22T23:30:46.412Z,102109.53
2018-11-22T23:33:14.533Z,102109.90
2018-11-22T23:35:42.806Z,102109.80
2018-11-22T23:38:11.030Z,102111.72
2018-11-22T23:40:39.188Z,102113.14
2018-11-22T23:43:07.384Z,102111.01
2018-11-22T23:45:35.549Z,102103.56
2018-11-22T23:48:03.763Z,102103.36
2018-11-22T23:50:33.070Z,102100.98
2018-11-22T23:53:02.307Z,102104.67
2018-11-22T23:55:30.465Z,102101.37
2018-11-22T23:57:58.747Z,102099.94
